»·PEaware :: UAL280 KLAX-KPSP

UAL280 :: KLAX-KPSP

FLIGHT INFORMATION

Flight Status: Arrived
Operator:
United Airlines
More flights by this operator :: More flights under this callsign
Pilot: Ion I. (24133)
Aircraft: BOEING 737-800
(B738)
More flights by this aircraft type
Origin: KLAX Los Angeles Intl
United States
Destination: KPSP Palm Springs Intl
United States
More flights between these airports :: More routes between these airports
Route: +LAXX1 TRM
File this flight plan on PilotEdge
Remarks:
Altitude:
(Current/Filed)
19,000ft
Speed:
(Current/Filed)
460kts
Departed: 07-May-19 09:56 PM
Arrived: 07-May-19 10:25 PM
Distance/Time
Traveled:
95nm/0:29
Distance/Time
To Go:
Arrived

Flight Plot

Page will automatically refresh every two minutes.


Map Options




Map Legend


Flown Route
Filed Route
Departure Airport
Arrival Airport
Navaid (VOR, NDB)
Fix

Horizontal Profiles

Position Reports

Time Latitude Longitude Heading Altitude Ground
Speed
07-May-19 21:24 33.942220 -118.399209 263 134ft 0kts
07-May-19 21:25 33.942220 -118.399209 263 134ft 0kts
07-May-19 21:26 33.942220 -118.399209 263 134ft 0kts
07-May-19 21:27 33.942220 -118.399209 263 134ft 0kts
07-May-19 21:28 33.942220 -118.399209 263 134ft 0kts
07-May-19 21:29 33.942220 -118.399209 263 134ft 0kts
07-May-19 21:30 33.942220 -118.399209 263 134ft 0kts
07-May-19 21:31 33.942220 -118.399209 263 134ft 0kts
07-May-19 21:32 33.942220 -118.399209 263 134ft 0kts
07-May-19 21:33 33.942220 -118.399209 263 134ft 0kts
07-May-19 21:34 33.942220 -118.399209 263 134ft 0kts
07-May-19 21:35 33.942220 -118.399209 263 134ft 0kts
07-May-19 21:36 33.942220 -118.399209 263 134ft 0kts
07-May-19 21:37 33.942220 -118.399209 263 134ft 0kts
07-May-19 21:38 33.942220 -118.399209 263 134ft 0kts
07-May-19 21:39 33.942220 -118.399209 263 134ft 0kts
07-May-19 21:40 33.942220 -118.399209 263 134ft 0kts
07-May-19 21:41 33.942220 -118.399209 263 134ft 0kts
07-May-19 21:42 33.942220 -118.399209 263 134ft 0kts
07-May-19 21:43 33.942220 -118.399209 263 134ft 0kts
07-May-19 21:44 33.942220 -118.399209 263 134ft 0kts
07-May-19 21:45 33.942260 -118.398798 258 134ft 2kts
07-May-19 21:46 33.942558 -118.398563 172 134ft 0kts
07-May-19 21:47 33.942558 -118.398563 172 134ft 0kts
07-May-19 21:48 33.941819 -118.398465 176 134ft 13kts
07-May-19 21:49 33.939395 -118.398113 168 134ft 17kts
07-May-19 21:50 33.939308 -118.394878 84 134ft 23kts
07-May-19 21:51 33.939735 -118.390510 87 134ft 19kts
07-May-19 21:52 33.940458 -118.383660 83 134ft 21kts
07-May-19 21:53 33.940705 -118.380934 96 134ft 0kts
07-May-19 21:54 33.939787 -118.380695 258 134ft 9kts
07-May-19 21:55 33.936728 -118.413543 266 589ft 164kts
07-May-19 21:56 33.922653 -118.467865 232 2732ft 207kts
07-May-19 21:57 33.866952 -118.510595 196 4690ft 270kts
07-May-19 21:58 33.791579 -118.531885 186 7679ft 290kts
07-May-19 21:59 33.716050 -118.522226 175 10199ft 317kts
07-May-19 22:00 33.633289 -118.471354 119 11728ft 388kts
07-May-19 22:01 33.621913 -118.337265 86 13384ft 423kts
07-May-19 22:02 33.622850 -118.220546 86 15436ft 433kts
07-May-19 22:03 33.623824 -118.097775 86 16989ft 443kts
07-May-19 22:04 33.624890 -117.955533 85 17000ft 443kts
07-May-19 22:05 33.626461 -117.807775 86 16997ft 442kts
07-May-19 22:06 33.627634 -117.660984 86 16999ft 443kts
07-May-19 22:07 33.628596 -117.512884 86 16994ft 443kts
07-May-19 22:08 33.629277 -117.364727 86 16995ft 443kts
07-May-19 22:10 33.629794 -117.218628 86 16966ft 437kts
07-May-19 22:11 33.630136 -117.077539 87 15431ft 411kts
07-May-19 22:12 33.630314 -116.947730 86 15141ft 359kts
07-May-19 22:13 33.630348 -116.840998 86 15104ft 307kts
07-May-19 22:14 33.630267 -116.743051 87 14768ft 312kts
07-May-19 22:15 33.630143 -116.643866 86 14028ft 270kts
07-May-19 22:16 33.629970 -116.556990 86 12875ft 249kts
07-May-19 22:17 33.629939 -116.472859 87 11687ft 254kts
07-May-19 22:18 33.629616 -116.388975 88 10381ft 246kts
07-May-19 22:19 33.632374 -116.308252 63 8945ft 240kts
07-May-19 22:20 33.685541 -116.304515 314 6969ft 223kts
07-May-19 22:21 33.722316 -116.354595 296 5155ft 220kts
07-May-19 22:22 33.741263 -116.420683 297 3544ft 193kts
07-May-19 22:23 33.780280 -116.463584 322 1688ft 186kts
07-May-19 22:24 33.815777 -116.495031 318 645ft 137kts
07-May-19 22:25 33.833940 -116.511518 306 485ft 4kts
07-May-19 22:26 33.833149 -116.512585 201 485ft 7kts
07-May-19 22:27 33.828261 -116.508452 144 485ft 24kts
07-May-19 22:28 33.823853 -116.505427 144 485ft 10kts
07-May-19 22:29 33.823419 -116.505904 244 485ft 0kts
07-May-19 22:30 33.823418 -116.505906 244 485ft 0kts

Navigation Log

Ident Type
Flight plan parsing failed, navigation log unavailable